createdAt,value
2019-01-31T00:02:17.199Z,-4.90
2019-01-31T00:05:12.995Z,-5.00
2019-01-31T00:07:55.748Z,-5.10
2019-01-31T00:10:46.869Z,-5.20
2019-01-31T00:13:36.858Z,-5.40
2019-01-31T00:16:41.901Z,-5.50
2019-01-31T00:19:25.245Z,-5.70
2019-01-31T00:22:05.739Z,-5.90
2019-01-31T00:24:37.250Z,-6.00
2019-01-31T00:27:11.376Z,-6.30
2019-01-31T00:29:48.000Z,-6.50
2019-01-31T00:32:25.356Z,-6.90
2019-01-31T00:34:59.504Z,-7.00
2019-01-31T00:37:45.644Z,-7.10
2019-01-31T00:40:35.367Z,-7.10
2019-01-31T00:43:37.865Z,-7.10
2019-01-31T00:46:24.420Z,-7.30
2019-01-31T00:49:19.421Z,-7.50
2019-01-31T00:52:12.099Z,-7.50
2019-01-31T00:55:11.797Z,-7.40
2019-01-31T00:57:49.125Z,-7.30
2019-01-31T01:00:45.033Z,-7.30
2019-01-31T01:03:24.808Z,-7.20
2019-01-31T01:06:11.214Z,-7.10
2019-01-31T01:09:07.559Z,-7.20
2019-01-31T01:11:46.005Z,-7.30
2019-01-31T01:14:35.396Z,-7.30
2019-01-31T01:17:15.312Z,-7.30
2019-01-31T01:20:04.938Z,-7.40
2019-01-31T01:22:54.251Z,-7.50
2019-01-31T01:25:43.684Z,-7.50
2019-01-31T01:28:26.923Z,-7.50
2019-01-31T01:30:58.686Z,-7.40
2019-01-31T01:33:42.001Z,-7.40
2019-01-31T01:36:43.281Z,-7.40
2019-01-31T01:39:19.299Z,-7.40
2019-01-31T01:42:08.340Z,-7.50
2019-01-31T01:44:59.163Z,-7.40
2019-01-31T01:47:30.663Z,-7.40
2019-01-31T01:50:11.307Z,-7.60
2019-01-31T01:52:51.651Z,-7.70
2019-01-31T01:55:29.113Z,-7.80
2019-01-31T01:58:15.590Z,-7.70
2019-01-31T02:01:07.959Z,-7.60
2019-01-31T02:04:13.540Z,-7.40
2019-01-31T02:07:06.923Z,-7.40
2019-01-31T02:09:38.421Z,-7.40
2019-01-31T02:12:21.740Z,-7.40
2019-01-31T02:15:12.624Z,-7.50
2019-01-31T02:20:58.521Z,-7.80
2019-01-31T02:23:38.964Z,-8.10
2019-01-31T02:26:33.297Z,-8.10
2019-01-31T02:29:07.906Z,-8.10
2019-01-31T02:31:54.376Z,-8.10
2019-01-31T02:34:52.409Z,-8.10
2019-01-31T02:37:26.671Z,-8.20
2019-01-31T02:40:09.517Z,-8.20
2019-01-31T02:42:43.991Z,-8.30
2019-01-31T02:45:23.893Z,-8.50
2019-01-31T02:48:04.211Z,-8.50
2019-01-31T02:50:50.766Z,-8.70
2019-01-31T02:53:25.320Z,-8.80
2019-01-31T02:56:02.541Z,-9.10
2019-01-31T02:58:46.226Z,-9.20
2019-01-31T03:01:23.711Z,-9.20
2019-01-31T03:04:04.040Z,-9.10
2019-01-31T03:06:41.084Z,-9.00
2019-01-31T03:09:18.122Z,-8.90
2019-01-31T03:11:49.634Z,-8.70
2019-01-31T03:14:21.466Z,-8.40
2019-01-31T03:17:07.752Z,-8.30
2019-01-31T03:19:54.138Z,-8.10
2019-01-31T03:22:34.315Z,-8.00
2019-01-31T03:25:34.557Z,-8.00
2019-01-31T03:28:23.704Z,-8.10
2019-01-31T03:31:00.757Z,-8.30
2019-01-31T03:33:47.125Z,-8.20
2019-01-31T03:36:27.741Z,-8.20
2019-01-31T03:39:15.465Z,-8.20
2019-01-31T03:42:08.294Z,-8.30
2019-01-31T03:44:45.370Z,-8.30
2019-01-31T03:47:25.522Z,-8.40
2019-01-31T03:50:02.706Z,-8.60
2019-01-31T03:52:57.731Z,-8.70
2019-01-31T03:56:01.170Z,-8.60
2019-01-31T03:58:49.919Z,-8.50
2019-01-31T04:01:38.778Z,-8.50
2019-01-31T04:04:22.048Z,-8.50
2019-01-31T04:06:50.473Z,-8.40
2019-01-31T04:09:18.901Z,-8.30
2019-01-31T04:11:47.333Z,-8.30
2019-01-31T04:14:15.750Z,-8.30
2019-01-31T04:16:44.179Z,-8.30
2019-01-31T04:19:12.591Z,-8.30
2019-01-31T04:21:41.329Z,-8.40
2019-01-31T04:24:10.017Z,-8.30
2019-01-31T04:26:38.444Z,-8.10
2019-01-31T04:29:07.181Z,-7.90
2019-01-31T04:31:35.594Z,-7.80
2019-01-31T04:34:04.017Z,-7.70
2019-01-31T04:36:32.726Z,-7.70
2019-01-31T04:39:01.153Z,-7.70
2019-01-31T04:41:29.564Z,-7.60
2019-01-31T04:43:57.989Z,-7.60
2019-01-31T04:46:26.401Z,-7.50
2019-01-31T04:48:54.836Z,-7.40
2019-01-31T04:51:23.248Z,-7.50
2019-01-31T04:53:52.006Z,-7.60
2019-01-31T04:56:20.434Z,-7.50
2019-01-31T04:58:48.887Z,-7.30
2019-01-31T05:01:17.304Z,-7.20
2019-01-31T05:03:45.722Z,-7.20
2019-01-31T05:06:14.141Z,-7.10
2019-01-31T05:08:42.570Z,-6.90
2019-01-31T05:11:10.986Z,-6.80
2019-01-31T05:13:39.409Z,-6.80
2019-01-31T05:16:07.819Z,-6.70
2019-01-31T05:18:36.270Z,-6.60
2019-01-31T05:21:05.185Z,-6.40
2019-01-31T05:23:33.605Z,-6.30
2019-01-31T05:26:02.089Z,-6.20
2019-01-31T05:28:30.592Z,-6.20
2019-01-31T05:30:59.005Z,-6.20
2019-01-31T05:33:27.430Z,-6.20
2019-01-31T05:36:15.185Z,-6.10
2019-01-31T05:38:43.889Z,-6.10
2019-01-31T05:41:12.301Z,-6.00
2019-01-31T05:43:40.733Z,-5.90
2019-01-31T05:46:09.208Z,-5.70
2019-01-31T05:48:38.345Z,-5.40
2019-01-31T05:51:06.753Z,-5.30
2019-01-31T05:53:35.386Z,-5.20
2019-01-31T05:56:04.217Z,-5.10
2019-01-31T05:58:32.669Z,-5.00
2019-01-31T06:01:01.091Z,-4.90
2019-01-31T06:03:29.537Z,-4.80
2019-01-31T06:05:58.001Z,-4.70
2019-01-31T06:08:26.420Z,-4.50
2019-01-31T06:10:54.836Z,-4.40
2019-01-31T06:13:23.260Z,-4.30
2019-01-31T06:15:51.677Z,-4.20
2019-01-31T06:18:20.099Z,-4.00
2019-01-31T06:20:48.523Z,-3.90
2019-01-31T06:23:16.933Z,-3.80
2019-01-31T06:25:45.364Z,-3.70
2019-01-31T06:28:13.780Z,-3.60
2019-01-31T06:30:42.202Z,-3.50
2019-01-31T06:33:10.618Z,-3.30
2019-01-31T06:35:58.378Z,-3.20
2019-01-31T06:38:26.789Z,-3.20
2019-01-31T06:40:55.213Z,-3.10
2019-01-31T06:43:23.629Z,-3.00
2019-01-31T06:45:52.049Z,-3.00
2019-01-31T06:48:20.465Z,-2.90
2019-01-31T06:50:48.901Z,-2.90
2019-01-31T06:53:17.309Z,-2.80
2019-01-31T06:55:45.737Z,-2.70
2019-01-31T06:58:14.153Z,-2.70
2019-01-31T07:00:42.928Z,-2.70
2019-01-31T07:03:11.522Z,-2.70
2019-01-31T07:05:59.277Z,-2.60
2019-01-31T07:08:27.688Z,-2.60
2019-01-31T07:10:56.113Z,-2.60
2019-01-31T07:13:24.797Z,-2.60
2019-01-31T07:15:53.221Z,-2.50
2019-01-31T07:18:21.634Z,-2.50
2019-01-31T07:20:50.335Z,-2.40
2019-01-31T07:23:18.752Z,-2.40
2019-01-31T07:25:47.177Z,-2.30
2019-01-31T07:28:15.596Z,-2.30
2019-01-31T07:30:44.092Z,-2.30
2019-01-31T07:33:12.516Z,-2.20
2019-01-31T07:35:40.956Z,-2.20
2019-01-31T07:38:09.356Z,-2.20
2019-01-31T07:40:37.790Z,-2.10
2019-01-31T07:43:06.206Z,-2.10
2019-01-31T07:45:34.949Z,-2.10
2019-01-31T07:48:03.379Z,-2.10
2019-01-31T07:50:31.801Z,-2.10
2019-01-31T07:53:00.216Z,-2.00
2019-01-31T07:55:28.645Z,-2.00
2019-01-31T07:57:57.061Z,-1.90
2019-01-31T08:00:26.033Z,-1.90
2019-01-31T08:02:54.790Z,-1.90
2019-01-31T08:05:24.265Z,-1.90
2019-01-31T08:07:55.024Z,-1.90
2019-01-31T08:10:32.416Z,-1.90
2019-01-31T08:13:00.838Z,-1.90
2019-01-31T08:15:29.252Z,-1.90
2019-01-31T08:17:57.676Z,-1.80
2019-01-31T08:20:26.099Z,-1.80
2019-01-31T08:22:54.516Z,-1.70
2019-01-31T08:25:25.140Z,-1.60
2019-01-31T08:27:54.608Z,-1.50
2019-01-31T08:30:31.504Z,-1.50
2019-01-31T08:32:59.932Z,-1.40
2019-01-31T08:35:28.345Z,-1.30
2019-01-31T08:37:56.853Z,-1.30
2019-01-31T08:40:25.333Z,-1.30
2019-01-31T08:42:53.930Z,-1.30
2019-01-31T08:45:22.322Z,-1.20
2019-01-31T08:47:50.817Z,-1.20
2019-01-31T08:50:27.978Z,-1.20
2019-01-31T08:52:56.391Z,-1.10
2019-01-31T08:55:24.808Z,-1.00
2019-01-31T08:57:53.240Z,-0.90
2019-01-31T09:00:29.604Z,-1.00
2019-01-31T09:02:58.397Z,-0.90
2019-01-31T09:05:26.822Z,-0.80
2019-01-31T09:07:56.493Z,-0.70
2019-01-31T09:10:27.353Z,-0.60
2019-01-31T09:12:56.334Z,-0.50
2019-01-31T09:15:26.189Z,-0.40
2019-01-31T09:17:54.681Z,-0.30
2019-01-31T09:20:26.185Z,-0.20
2019-01-31T09:23:00.634Z,-0.20
2019-01-31T09:26:06.140Z,-0.10
2019-01-31T09:28:54.406Z,-0.10
2019-01-31T09:31:28.813Z,-0.20
2019-01-31T09:34:06.105Z,-0.20
2019-01-31T09:36:49.736Z,-0.20
2019-01-31T09:39:21.241Z,-0.20
2019-01-31T09:41:58.725Z,-0.20
2019-01-31T09:44:42.368Z,-0.10
2019-01-31T09:47:35.064Z,0.10
2019-01-31T09:50:09.401Z,0.30
2019-01-31T09:53:12.700Z,0.40
2019-01-31T09:56:00.733Z,0.50
2019-01-31T09:58:35.140Z,0.70
2019-01-31T10:01:29.253Z,0.80
2019-01-31T10:04:19.788Z,0.70
2019-01-31T10:07:03.021Z,0.70
2019-01-31T10:09:33.595Z,0.70
2019-01-31T10:12:19.934Z,0.50
2019-01-31T10:14:51.465Z,0.50
2019-01-31T10:17:28.595Z,0.40
2019-01-31T10:20:20.552Z,0.30
2019-01-31T10:22:54.993Z,0.10
2019-01-31T10:25:29.124Z,0.10
2019-01-31T10:28:06.586Z,0.10
2019-01-31T10:30:49.845Z,0.10
2019-01-31T10:33:24.042Z,0.10
2019-01-31T10:36:05.817Z,0.30
2019-01-31T10:38:46.783Z,0.30
2019-01-31T10:41:30.129Z,0.30
2019-01-31T10:44:07.065Z,0.30
2019-01-31T10:46:38.565Z,0.30
2019-01-31T10:49:26.890Z,0.30
2019-01-31T10:52:10.165Z,0.40
2019-01-31T10:54:44.424Z,0.40
2019-01-31T10:57:15.913Z,0.50
2019-01-31T11:00:14.817Z,0.60
2019-01-31T11:02:52.381Z,0.60
2019-01-31T11:05:26.685Z,0.60
2019-01-31T11:08:18.857Z,0.60
2019-01-31T11:10:56.323Z,0.70
2019-01-31T11:13:44.665Z,0.70
2019-01-31T11:16:31.269Z,0.80
2019-01-31T11:19:12.739Z,0.80
2019-01-31T11:21:53.433Z,0.90
2019-01-31T11:24:43.052Z,0.80
2019-01-31T11:27:17.249Z,0.90
2019-01-31T11:29:54.449Z,1.00
2019-01-31T11:32:28.580Z,1.00
2019-01-31T11:35:00.137Z,1.10
2019-01-31T11:37:46.853Z,1.20
2019-01-31T11:40:30.410Z,1.20
2019-01-31T11:43:22.883Z,1.20
2019-01-31T11:46:12.510Z,1.20
2019-01-31T11:48:46.849Z,1.30
2019-01-31T11:51:33.072Z,1.30
2019-01-31T11:54:21.269Z,1.30
2019-01-31T11:57:05.588Z,1.20
2019-01-31T11:59:31.351Z,1.20
2019-01-31T12:01:59.916Z,1.20
2019-01-31T12:04:28.621Z,1.30
2019-01-31T12:06:57.052Z,1.40
2019-01-31T12:09:25.533Z,1.30
2019-01-31T12:11:53.950Z,1.40
2019-01-31T12:14:22.434Z,1.40
2019-01-31T12:16:50.896Z,1.50
2019-01-31T12:19:19.302Z,1.60
2019-01-31T12:21:47.758Z,1.70
2019-01-31T12:24:16.843Z,1.70
2019-01-31T12:26:45.471Z,1.70
2019-01-31T12:29:13.953Z,1.70
2019-01-31T12:31:42.449Z,1.70
2019-01-31T12:34:10.855Z,1.70
2019-01-31T12:36:39.283Z,1.70
2019-01-31T12:39:09.127Z,1.70
2019-01-31T12:41:37.556Z,1.60
2019-01-31T12:44:05.966Z,1.50
2019-01-31T12:46:34.481Z,1.40
2019-01-31T12:49:02.974Z,1.40
2019-01-31T12:51:31.457Z,1.30
2019-01-31T12:53:59.869Z,1.40
2019-01-31T12:56:28.369Z,1.40
2019-01-31T12:58:57.053Z,1.40
2019-01-31T13:01:25.476Z,1.40
2019-01-31T13:03:53.884Z,1.40
2019-01-31T13:06:22.316Z,1.40
2019-01-31T13:08:50.720Z,1.40
2019-01-31T13:11:19.188Z,1.40
2019-01-31T13:13:47.625Z,1.40
2019-01-31T13:16:16.122Z,1.30
2019-01-31T13:18:44.529Z,1.30
2019-01-31T13:21:13.235Z,1.00
2019-01-31T13:23:41.649Z,0.70
2019-01-31T13:26:10.070Z,0.70
2019-01-31T13:28:38.494Z,0.60
2019-01-31T13:31:06.924Z,0.50
2019-01-31T13:33:35.405Z,0.60
2019-01-31T13:36:05.610Z,0.50
2019-01-31T13:38:34.091Z,0.50
2019-01-31T13:41:02.513Z,0.50
2019-01-31T13:43:31.012Z,0.60
2019-01-31T13:45:59.738Z,0.70
2019-01-31T13:48:28.222Z,0.70
2019-01-31T13:50:56.711Z,0.70
2019-01-31T13:53:25.441Z,0.70
2019-01-31T13:55:56.210Z,0.70
2019-01-31T13:58:24.633Z,0.70
2019-01-31T14:00:53.381Z,0.60
2019-01-31T14:03:21.809Z,0.60
2019-01-31T14:05:50.254Z,0.60
2019-01-31T14:08:18.981Z,0.70
2019-01-31T14:10:47.403Z,0.70
2019-01-31T14:13:16.093Z,0.70
2019-01-31T14:15:44.517Z,0.70
2019-01-31T14:18:12.933Z,0.70
2019-01-31T14:20:41.349Z,0.70
2019-01-31T14:23:10.122Z,0.60
2019-01-31T14:25:38.534Z,0.50
2019-01-31T14:28:06.948Z,0.40
2019-01-31T14:30:37.412Z,0.40
2019-01-31T14:33:08.805Z,0.40
2019-01-31T14:35:37.285Z,0.40
2019-01-31T14:38:06.053Z,0.40
2019-01-31T14:40:34.466Z,0.50
2019-01-31T14:43:02.889Z,0.50
2019-01-31T14:45:31.577Z,0.50
2019-01-31T14:48:00.009Z,0.50
2019-01-31T14:50:31.506Z,0.30
2019-01-31T14:52:59.984Z,0.10
2019-01-31T14:55:28.397Z,0.10
2019-01-31T14:57:56.969Z,0.10
2019-01-31T15:00:28.098Z,0.00
2019-01-31T15:02:56.509Z,0.00
2019-01-31T15:05:25.258Z,0.00
2019-01-31T15:07:54.265Z,-0.10
2019-01-31T15:10:27.925Z,-0.10
2019-01-31T15:12:56.720Z,-0.20
2019-01-31T15:15:25.147Z,-0.40
2019-01-31T15:17:54.029Z,-0.50
2019-01-31T15:20:37.671Z,-0.60
2019-01-31T15:22:59.468Z,-0.60
2019-01-31T15:25:27.890Z,-0.70
2019-01-31T15:27:56.305Z,-0.80
2019-01-31T15:30:32.501Z,-0.80
2019-01-31T15:33:01.465Z,-0.90
2019-01-31T15:35:29.897Z,-1.00
2019-01-31T15:37:58.324Z,-1.00
2019-01-31T15:40:30.162Z,-1.00
2019-01-31T15:42:58.587Z,-1.00
2019-01-31T15:45:27.086Z,-1.00
2019-01-31T15:47:55.645Z,-1.00
2019-01-31T15:50:24.517Z,-0.90
2019-01-31T15:52:52.950Z,-0.90
2019-01-31T15:55:26.735Z,-1.10
2019-01-31T15:57:55.253Z,-1.20
2019-01-31T16:00:34.317Z,-1.20
2019-01-31T16:03:02.733Z,-1.20
2019-01-31T16:05:31.168Z,-1.20
2019-01-31T16:07:59.588Z,-1.20
2019-01-31T16:10:28.023Z,-1.20
2019-01-31T16:12:56.478Z,-1.20
2019-01-31T16:15:25.084Z,-1.30
2019-01-31T16:17:53.509Z,-1.40
2019-01-31T16:20:22.009Z,-1.40
2019-01-31T16:22:50.424Z,-1.50
2019-01-31T16:25:18.861Z,-1.60
2019-01-31T16:27:47.280Z,-2.20
2019-01-31T16:30:17.557Z,-2.60
2019-01-31T16:32:45.986Z,-3.00
2019-01-31T16:35:16.833Z,-3.00
2019-01-31T16:37:45.395Z,-2.90
2019-01-31T16:40:15.906Z,-2.60
2019-01-31T16:42:44.405Z,-2.40
2019-01-31T16:45:15.152Z,-2.40
2019-01-31T16:47:43.651Z,-2.50
2019-01-31T16:50:14.896Z,-2.60
2019-01-31T16:52:43.980Z,-2.70
2019-01-31T16:55:15.121Z,-2.90
2019-01-31T16:57:43.874Z,-3.10
2019-01-31T17:00:18.512Z,-3.30
2019-01-31T17:02:48.394Z,-3.50
2019-01-31T17:05:19.193Z,-3.60
2019-01-31T17:07:47.688Z,-3.60
2019-01-31T17:10:16.195Z,-3.60
2019-01-31T17:12:44.598Z,-3.50
2019-01-31T17:15:18.201Z,-3.50
2019-01-31T17:17:45.981Z,-3.40
2019-01-31T17:20:29.969Z,-3.40
2019-01-31T17:22:58.385Z,-3.60
2019-01-31T17:25:27.152Z,-3.60
2019-01-31T17:27:55.572Z,-3.70
2019-01-31T17:30:25.938Z,-3.70
2019-01-31T17:32:54.634Z,-3.70
2019-01-31T17:35:23.113Z,-3.60
2019-01-31T17:37:51.528Z,-3.60
2019-01-31T17:40:28.508Z,-3.70
2019-01-31T17:42:56.933Z,-3.70
2019-01-31T17:45:30.397Z,-3.80
2019-01-31T17:47:55.939Z,-3.80
2019-01-31T17:50:24.342Z,-3.70
2019-01-31T17:52:52.779Z,-3.80
2019-01-31T17:55:23.233Z,-3.70
2019-01-31T17:57:51.807Z,-3.60
2019-01-31T18:00:24.556Z,-3.60
2019-01-31T18:02:53.405Z,-3.70
2019-01-31T18:05:21.821Z,-3.80
2019-01-31T18:07:50.244Z,-3.80
2019-01-31T18:10:21.433Z,-3.80
2019-01-31T18:12:49.878Z,-3.80
2019-01-31T18:15:18.529Z,-3.60
2019-01-31T18:17:46.953Z,-3.50
2019-01-31T18:20:18.485Z,-3.40
2019-01-31T18:22:46.921Z,-3.40
2019-01-31T18:25:16.102Z,-3.30
2019-01-31T18:27:44.529Z,-3.20
2019-01-31T18:30:34.049Z,-3.20
